Time;durP1;ratioP1;P1;durP2;ratioP2;P2;SDS_P1;SDS_P2;PMS_P1;PMS_P2;Temp;Humidity;BMP_temperature;BMP_pressure;BME280_temperature;BME280_humidity;BME280_pressure;Samples;Min_cycle;Max_cycle;Signal;HPM_P1;HPM_P2
2024/02/06 00:02:01;;;;;;;8.00;7.18;;;7.40;99.90;;;;;;5008048;28;20294;-63
2024/02/06 00:04:28;;;;;;;10.23;7.55;;;7.40;99.90;;;;;;5009022;28;20306;-63
2024/02/06 00:06:56;;;;;;;10.00;6.82;;;7.50;99.90;;;;;;5009099;28;20210;-63
2024/02/06 00:09:23;;;;;;;7.85;6.40;;;7.40;99.90;;;;;;5008410;28;20324;-62
2024/02/06 00:11:49;;;;;;;9.75;6.45;;;7.50;99.90;;;;;;5008144;28;20231;-62
2024/02/06 00:14:16;;;;;;;7.80;7.10;;;7.50;99.90;;;;;;5008668;28;20285;-62
2024/02/06 00:16:43;;;;;;;11.30;8.55;;;7.50;99.90;;;;;;5008998;28;20605;-62
2024/02/06 00:19:10;;;;;;;12.30;8.73;;;7.50;99.90;;;;;;5008588;28;20302;-62
2024/02/06 00:21:37;;;;;;;10.20;7.25;;;7.50;99.90;;;;;;5008046;28;20713;-62
2024/02/06 00:24:05;;;;;;;14.50;7.97;;;7.50;99.90;;;;;;5008599;28;20212;-63
2024/02/06 00:26:32;;;;;;;10.35;9.02;;;7.50;99.90;;;;;;5008528;28;20203;-62
2024/02/06 00:28:59;;;;;;;10.63;7.55;;;7.50;99.90;;;;;;5009202;28;20216;-62
2024/02/06 00:31:26;;;;;;;12.52;8.10;;;7.50;99.90;;;;;;5007351;28;20322;-63
2024/02/06 00:33:53;;;;;;;14.57;7.50;;;7.60;99.90;;;;;;5009556;28;20690;-62
2024/02/06 00:36:20;;;;;;;11.48;8.40;;;7.60;99.90;;;;;;5009410;28;20317;-63
2024/02/06 00:38:49;;;;;;;14.88;9.63;;;7.60;99.90;;;;;;5009052;28;20358;-63
2024/02/06 00:41:18;;;;;;;9.27;8.45;;;7.60;99.90;;;;;;5008692;28;20259;-63
2024/02/06 00:43:45;;;;;;;14.98;7.95;;;7.60;99.90;;;;;;5009021;28;20839;-63
2024/02/06 00:46:11;;;;;;;11.32;7.47;;;7.60;99.90;;;;;;5009081;28;20323;-63
2024/02/06 00:48:38;;;;;;;9.90;8.98;;;7.60;99.90;;;;;;5007751;28;20208;-63
2024/02/06 00:51:08;;;;;;;13.23;7.15;;;7.60;99.90;;;;;;5008546;28;20232;-62
2024/02/06 00:53:35;;;;;;;13.85;8.45;;;7.60;99.90;;;;;;5008888;28;20815;-63
2024/02/06 00:56:05;;;;;;;9.63;7.25;;;7.60;99.90;;;;;;5008975;28;20696;-63
2024/02/06 00:58:33;;;;;;;9.13;7.78;;;7.60;99.90;;;;;;5008696;28;20298;-63
2024/02/06 01:01:00;;;;;;;9.40;6.93;;;7.60;99.90;;;;;;5007896;28;20232;-63
2024/02/06 01:03:27;;;;;;;10.52;8.35;;;7.70;99.90;;;;;;5008784;28;20247;-63
2024/02/06 01:05:54;;;;;;;9.40;7.30;;;7.60;99.90;;;;;;5008328;28;20222;-63
2024/02/06 01:08:21;;;;;;;7.95;7.15;;;7.60;99.90;;;;;;5008465;28;20218;-63
2024/02/06 01:10:47;;;;;;;7.38;6.68;;;7.60;99.90;;;;;;5008183;28;20242;-63
2024/02/06 01:13:14;;;;;;;9.05;6.75;;;7.60;99.90;;;;;;5008696;28;20210;-63
2024/02/06 01:15:43;;;;;;;9.10;6.70;;;7.60;99.90;;;;;;5008603;28;20278;-62
2024/02/06 01:18:09;;;;;;;10.27;9.10;;;7.60;99.90;;;;;;5008446;28;20234;-62
2024/02/06 01:20:36;;;;;;;9.27;7.20;;;7.60;99.90;;;;;;5007455;28;20238;-63
2024/02/06 01:23:03;;;;;;;9.77;6.38;;;7.60;99.90;;;;;;5008083;28;20235;-63
2024/02/06 01:25:30;;;;;;;7.97;7.32;;;7.60;99.90;;;;;;5007811;28;20312;-62
2024/02/06 01:27:57;;;;;;;8.73;7.13;;;7.60;99.90;;;;;;5008467;28;20628;-63
2024/02/06 01:30:24;;;;;;;7.15;6.20;;;7.60;99.90;;;;;;5006876;28;20239;-63
2024/02/06 01:32:52;;;;;;;13.13;7.70;;;7.60;99.90;;;;;;5008069;28;20204;-63
2024/02/06 01:35:19;;;;;;;9.05;7.85;;;7.60;99.90;;;;;;5008648;28;20208;-63
2024/02/06 01:37:46;;;;;;;8.63;6.22;;;7.60;99.90;;;;;;5011261;28;20318;-63
2024/02/06 01:40:13;;;;;;;10.80;7.32;;;7.60;99.90;;;;;;5012261;28;20246;-63
2024/02/06 01:42:41;;;;;;;7.30;6.60;;;7.60;99.90;;;;;;5012009;28;20216;-63
2024/02/06 01:45:09;;;;;;;8.07;7.22;;;7.60;99.90;;;;;;5012613;28;20223;-63
2024/02/06 01:47:36;;;;;;;12.30;6.97;;;7.60;99.90;;;;;;5012132;28;20207;-63
2024/02/06 01:50:05;;;;;;;10.27;7.88;;;7.60;99.90;;;;;;5011957;28;20242;-63
2024/02/06 01:52:32;;;;;;;8.23;6.30;;;7.60;99.90;;;;;;5011636;28;20678;-63
2024/02/06 01:54:59;;;;;;;10.90;7.63;;;7.60;99.90;;;;;;5011935;28;20299;-63
2024/02/06 01:57:27;;;;;;;10.73;9.02;;;7.60;99.90;;;;;;5011914;28;20605;-62
2024/02/06 01:59:54;;;;;;;10.90;7.00;;;7.60;99.90;;;;;;5011552;28;20260;-63
2024/02/06 02:02:21;;;;;;;10.02;7.90;;;7.60;99.90;;;;;;5011102;28;20211;-63
2024/02/06 02:04:48;;;;;;;10.35;8.65;;;7.60;99.90;;;;;;5011717;28;20302;-63
2024/02/06 02:07:16;;;;;;;11.30;8.15;;;7.60;99.90;;;;;;5011804;28;20708;-63
2024/02/06 02:09:43;;;;;;;8.77;7.82;;;7.60;99.90;;;;;;5011423;28;20218;-62
2024/02/06 02:12:10;;;;;;;9.68;7.57;;;7.60;99.90;;;;;;5011589;28;20218;-63
2024/02/06 02:14:37;;;;;;;10.55;9.25;;;7.60;99.90;;;;;;5011774;28;20341;-62
2024/02/06 02:17:04;;;;;;;7.55;6.82;;;7.60;99.90;;;;;;5011734;28;20227;-63
2024/02/06 02:19:31;;;;;;;10.85;7.03;;;7.60;99.90;;;;;;5011465;28;20211;-64
2024/02/06 02:21:59;;;;;;;9.50;7.43;;;7.60;99.90;;;;;;5011039;28;20216;-63
2024/02/06 02:24:26;;;;;;;9.52;7.55;;;7.60;99.90;;;;;;5011410;28;20212;-63
2024/02/06 02:26:54;;;;;;;7.38;6.68;;;7.60;99.90;;;;;;5011685;28;20212;-63
2024/02/06 02:29:22;;;;;;;10.93;7.45;;;7.70;99.90;;;;;;5011171;28;20294;-62
2024/02/06 02:31:51;;;;;;;11.68;8.90;;;7.60;99.90;;;;;;5010470;28;20730;-63
2024/02/06 02:34:18;;;;;;;12.57;7.70;;;7.60;99.90;;;;;;5011432;28;20327;-63
2024/02/06 02:36:44;;;;;;;14.40;9.13;;;7.60;99.90;;;;;;5011235;28;20228;-63
2024/02/06 02:39:13;;;;;;;12.75;8.80;;;7.60;99.90;;;;;;5011648;28;20218;-63
2024/02/06 02:41:39;;;;;;;12.35;11.25;;;7.60;99.90;;;;;;5010818;28;20237;-63
2024/02/06 02:44:07;;;;;;;9.57;7.80;;;7.60;99.90;;;;;;5011105;28;20214;-63
2024/02/06 02:46:34;;;;;;;9.77;8.63;;;7.50;99.90;;;;;;5011553;28;20219;-63
2024/02/06 02:49:00;;;;;;;9.32;8.10;;;7.50;99.90;;;;;;5009929;28;20208;-63
2024/02/06 02:51:27;;;;;;;8.65;7.75;;;7.50;99.90;;;;;;5010458;28;20237;-63
2024/02/06 02:53:54;;;;;;;11.88;8.40;;;7.50;99.90;;;;;;5011257;28;20593;-63
2024/02/06 02:56:22;;;;;;;15.93;9.00;;;7.50;99.90;;;;;;5011098;28;20208;-62
2024/02/06 02:58:49;;;;;;;8.05;7.03;;;7.50;99.90;;;;;;5010714;28;20330;-62
2024/02/06 03:01:16;;;;;;;12.00;7.70;;;7.50;99.90;;;;;;5010261;28;20752;-63
2024/02/06 03:03:43;;;;;;;11.52;8.55;;;7.50;99.90;;;;;;5010877;28;20212;-63
2024/02/06 03:06:10;;;;;;;10.43;7.85;;;7.50;99.90;;;;;;5010708;28;20603;-62
2024/02/06 03:08:38;;;;;;;11.65;8.32;;;7.50;99.90;;;;;;5010795;28;20218;-63
2024/02/06 03:11:05;;;;;;;13.85;7.93;;;7.50;99.90;;;;;;5010195;28;20997;-61
2024/02/06 03:13:33;;;;;;;11.73;9.18;;;7.50;99.90;;;;;;5010834;28;20211;-64
2024/02/06 03:16:00;;;;;;;9.13;8.18;;;7.50;99.90;;;;;;5011111;28;20212;-63
2024/02/06 03:18:27;;;;;;;11.85;9.50;;;7.50;99.90;;;;;;5010531;28;20235;-63
2024/02/06 03:20:54;;;;;;;9.52;7.07;;;7.50;99.90;;;;;;5010399;28;20599;-63
2024/02/06 03:23:22;;;;;;;12.00;7.72;;;7.50;99.90;;;;;;5010587;28;20306;-63
2024/02/06 03:25:49;;;;;;;10.32;7.85;;;7.50;99.90;;;;;;5010416;28;20215;-63
2024/02/06 03:28:16;;;;;;;11.93;7.70;;;7.50;99.90;;;;;;5010170;28;20701;-63
2024/02/06 03:30:44;;;;;;;9.07;6.47;;;7.50;99.90;;;;;;5042283;22;20249;-62
2024/02/06 03:33:11;;;;;;;12.27;8.20;;;7.50;99.90;;;;;;5030033;28;20211;-61
2024/02/06 03:35:39;;;;;;;11.00;8.77;;;7.40;99.90;;;;;;5029992;28;20561;-61
2024/02/06 03:38:06;;;;;;;11.55;9.13;;;7.50;99.90;;;;;;5029523;28;20234;-62
2024/02/06 03:40:33;;;;;;;10.90;7.43;;;7.50;99.90;;;;;;5030369;28;20233;-61
2024/02/06 03:43:00;;;;;;;12.02;8.38;;;7.50;99.90;;;;;;5029482;28;20253;-61
2024/02/06 03:45:28;;;;;;;16.00;10.77;;;7.40;99.90;;;;;;5029928;28;20306;-60
2024/02/06 03:47:56;;;;;;;12.25;7.75;;;7.50;99.90;;;;;;5030066;28;20211;-61
2024/02/06 03:50:23;;;;;;;11.85;8.60;;;7.40;99.90;;;;;;5029756;28;20230;-60
2024/02/06 03:52:49;;;;;;;11.95;7.32;;;7.40;99.90;;;;;;5029066;28;20206;-59
2024/02/06 03:55:16;;;;;;;9.32;7.32;;;7.40;99.90;;;;;;5029892;28;20211;-61
2024/02/06 03:57:43;;;;;;;8.10;7.30;;;7.40;99.90;;;;;;5029684;28;20263;-58
2024/02/06 04:00:11;;;;;;;8.43;6.13;;;7.40;99.90;;;;;;5029168;28;20317;-61
2024/02/06 04:02:39;;;;;;;12.07;7.28;;;7.50;99.90;;;;;;5029004;28;20221;-61
2024/02/06 04:05:07;;;;;;;8.68;7.43;;;7.40;99.90;;;;;;5029207;28;20630;-59
2024/02/06 04:07:34;;;;;;;11.48;7.65;;;7.40;99.90;;;;;;5029237;28;20264;-61
2024/02/06 04:10:01;;;;;;;9.95;7.35;;;7.40;99.90;;;;;;5029077;28;20235;-61
2024/02/06 04:12:28;;;;;;;7.25;6.55;;;7.40;99.90;;;;;;5028807;28;20302;-61
2024/02/06 04:14:55;;;;;;;10.60;7.97;;;7.40;99.90;;;;;;5029178;28;20686;-61
2024/02/06 04:17:22;;;;;;;9.23;6.30;;;7.40;99.90;;;;;;5029180;28;20720;-61
2024/02/06 04:19:48;;;;;;;10.30;6.28;;;7.40;99.90;;;;;;5028990;28;20215;-60
2024/02/06 04:22:17;;;;;;;13.35;7.50;;;7.40;99.90;;;;;;5029152;28;20927;-59
2024/02/06 04:24:43;;;;;;;6.88;5.70;;;7.40;99.90;;;;;;5029231;28;20696;-60
2024/02/06 04:27:10;;;;;;;11.25;6.65;;;7.40;99.90;;;;;;5028890;28;20221;-61
2024/02/06 04:29:37;;;;;;;7.07;6.38;;;7.30;99.90;;;;;;5028664;28;20305;-60
2024/02/06 04:32:04;;;;;;;7.32;5.53;;;7.40;99.90;;;;;;5028485;28;20211;-60
2024/02/06 04:34:32;;;;;;;8.80;6.82;;;7.30;99.90;;;;;;5028834;28;20211;-61
2024/02/06 04:36:59;;;;;;;9.70;6.07;;;7.30;99.90;;;;;;5029068;28;20215;-60
2024/02/06 04:39:27;;;;;;;8.82;7.13;;;7.30;99.90;;;;;;5028887;28;20211;-61
2024/02/06 04:41:54;;;;;;;11.70;7.28;;;7.30;99.90;;;;;;5028286;28;20322;-60
2024/02/06 04:44:21;;;;;;;8.15;5.55;;;7.30;99.90;;;;;;5028988;28;20214;-60
2024/02/06 04:46:47;;;;;;;7.57;6.13;;;7.30;99.90;;;;;;5026297;28;20602;-61
2024/02/06 04:49:15;;;;;;;8.00;6.05;;;7.30;99.90;;;;;;5028779;28;20213;-60
2024/02/06 04:51:41;;;;;;;8.68;6.60;;;7.30;99.90;;;;;;5028148;28;20597;-61
2024/02/06 04:54:08;;;;;;;5.93;5.20;;;7.30;99.90;;;;;;5028849;28;20207;-61
2024/02/06 04:56:36;;;;;;;9.48;5.65;;;7.30;99.90;;;;;;5028792;28;20591;-60
2024/02/06 04:59:03;;;;;;;8.25;6.43;;;7.30;99.90;;;;;;5028362;28;20771;-61
2024/02/06 05:01:31;;;;;;;17.35;6.45;;;7.30;99.90;;;;;;5027996;28;20231;-59
2024/02/06 05:03:58;;;;;;;8.50;5.75;;;7.30;99.90;;;;;;5028845;28;20589;-60
2024/02/06 05:06:25;;;;;;;9.07;5.80;;;7.30;99.90;;;;;;5028492;28;20347;-60
2024/02/06 05:08:52;;;;;;;10.18;5.68;;;7.30;99.90;;;;;;5028462;28;20203;-59
2024/02/06 05:11:19;;;;;;;7.20;6.40;;;7.30;99.90;;;;;;5028450;28;20321;-61
2024/02/06 05:13:47;;;;;;;6.78;5.75;;;7.30;99.90;;;;;;5032518;28;20210;-60
2024/02/06 05:16:14;;;;;;;6.63;6.00;;;7.30;99.90;;;;;;5032440;28;20218;-61
2024/02/06 05:18:41;;;;;;;5.65;5.07;;;7.30;99.90;;;;;;5032383;28;20317;-61
2024/02/06 05:21:08;;;;;;;6.18;5.03;;;7.30;99.90;;;;;;5031918;28;20238;-61
2024/02/06 05:23:35;;;;;;;7.57;5.20;;;7.30;99.90;;;;;;5032615;28;20217;-61
2024/02/06 05:26:01;;;;;;;5.65;5.15;;;7.30;99.90;;;;;;5032846;28;20217;-61
2024/02/06 05:28:28;;;;;;;5.78;5.10;;;7.30;99.90;;;;;;5032438;28;20650;-61
2024/02/06 05:30:57;;;;;;;6.57;4.90;;;7.30;99.90;;;;;;5031785;28;20246;-60
2024/02/06 05:33:23;;;;;;;6.95;4.85;;;7.30;99.90;;;;;;5032303;28;20211;-60
2024/02/06 05:35:50;;;;;;;3.78;3.47;;;7.30;99.90;;;;;;5032264;28;20217;-61
2024/02/06 05:38:18;;;;;;;6.63;4.40;;;7.40;99.90;;;;;;5032083;28;20642;-61
2024/02/06 05:40:45;;;;;;;5.50;5.00;;;7.40;99.90;;;;;;5031690;28;20238;-60
2024/02/06 05:43:12;;;;;;;4.00;3.70;;;7.40;99.90;;;;;;5032324;28;20294;-59
2024/02/06 05:45:39;;;;;;;4.65;3.78;;;7.40;99.90;;;;;;5032114;28;20210;-61
2024/02/06 05:48:08;;;;;;;4.60;3.50;;;7.40;99.90;;;;;;5031661;28;20217;-60
2024/02/06 05:50:35;;;;;;;14.88;5.13;;;7.50;99.90;;;;;;5031892;28;20238;-60
2024/02/06 05:53:02;;;;;;;5.90;2.60;;;7.50;99.90;;;;;;5031663;28;20230;-60
2024/02/06 05:55:29;;;;;;;4.43;4.03;;;7.40;99.90;;;;;;5031953;28;20211;-61
2024/02/06 05:57:56;;;;;;;4.95;3.78;;;7.50;99.90;;;;;;5032043;28;20713;-60
2024/02/06 06:00:26;;;;;;;4.07;2.85;;;7.50;99.90;;;;;;5031897;28;20231;-61
2024/02/06 06:02:53;;;;;;;3.58;3.22;;;7.50;99.90;;;;;;5031306;28;20211;-61
2024/02/06 06:05:22;;;;;;;4.15;3.42;;;7.50;99.90;;;;;;5031596;28;20211;-61
2024/02/06 06:07:49;;;;;;;4.32;2.70;;;7.50;99.90;;;;;;5031876;28;20219;-61
2024/02/06 06:10:17;;;;;;;4.35;3.28;;;7.50;99.90;;;;;;5031370;28;20751;-60
2024/02/06 06:12:44;;;;;;;4.60;3.15;;;7.50;99.90;;;;;;5031258;28;20210;-60
2024/02/06 06:15:11;;;;;;;6.50;3.33;;;7.50;99.90;;;;;;5031565;28;20215;-61
2024/02/06 06:17:38;;;;;;;3.30;3.00;;;7.50;99.90;;;;;;5031599;28;20276;-60
2024/02/06 06:20:06;;;;;;;3.83;3.15;;;7.50;99.90;;;;;;5031200;28;20227;-61
2024/02/06 06:22:34;;;;;;;3.28;3.05;;;7.50;99.90;;;;;;5030740;28;20221;-61
2024/02/06 06:25:01;;;;;;;3.85;2.85;;;7.50;99.90;;;;;;5031306;28;20213;-61
2024/02/06 06:27:28;;;;;;;5.07;3.63;;;7.50;99.90;;;;;;5031369;28;20241;-59
2024/02/06 06:29:55;;;;;;;5.30;3.00;;;7.50;99.90;;;;;;5031278;28;20688;-61
2024/02/06 06:32:21;;;;;;;3.75;3.38;;;7.50;99.90;;;;;;5030729;28;20211;-61
2024/02/06 06:34:48;;;;;;;3.47;3.03;;;7.50;99.90;;;;;;5031300;28;20607;-60
2024/02/06 06:37:18;;;;;;;3.95;2.97;;;7.50;99.90;;;;;;5031240;28;20207;-61
2024/02/06 06:39:47;;;;;;;5.03;3.42;;;7.50;99.90;;;;;;5030672;28;20789;-61
2024/02/06 06:42:15;;;;;;;4.63;3.13;;;7.50;99.90;;;;;;5030429;28;20210;-60
2024/02/06 06:44:42;;;;;;;3.85;3.30;;;7.50;99.90;;;;;;5030889;28;20662;-60
2024/02/06 06:47:11;;;;;;;6.72;3.08;;;7.50;99.90;;;;;;5030786;28;20242;-58
2024/02/06 06:49:37;;;;;;;3.60;2.50;;;7.50;99.90;;;;;;5030641;28;20218;-61
2024/02/06 06:52:05;;;;;;;7.05;3.20;;;7.40;99.90;;;;;;5030339;28;20288;-60
2024/02/06 06:54:32;;;;;;;7.22;3.33;;;7.40;99.90;;;;;;5030756;28;20211;-61
2024/02/06 06:57:00;;;;;;;4.05;3.28;;;7.40;99.90;;;;;;5030486;28;20215;-60
2024/02/06 06:59:27;;;;;;;5.30;4.30;;;7.40;99.90;;;;;;5030433;28;20241;-60
2024/02/06 07:01:55;;;;;;;4.40;4.00;;;7.40;99.90;;;;;;5016135;28;20227;-60
2024/02/06 07:04:23;;;;;;;3.80;3.05;;;7.30;99.90;;;;;;5023088;28;20293;-61
2024/02/06 07:06:50;;;;;;;4.80;3.88;;;7.30;99.90;;;;;;5014625;28;20234;-60
2024/02/06 07:09:17;;;;;;;6.75;4.57;;;7.30;99.90;;;;;;5021206;28;20580;-60
2024/02/06 07:11:44;;;;;;;4.45;3.70;;;7.30;99.90;;;;;;5029882;28;20231;-60
2024/02/06 07:14:12;;;;;;;5.93;4.55;;;7.30;99.90;;;;;;5022183;28;20589;-58
2024/02/06 07:16:38;;;;;;;4.80;3.30;;;7.30;99.90;;;;;;5010796;28;20215;-60
2024/02/06 07:19:06;;;;;;;7.40;4.80;;;7.30;99.90;;;;;;5010314;28;20238;-59
2024/02/06 07:21:32;;;;;;;6.88;3.65;;;7.30;99.90;;;;;;5009753;28;20536;-60
2024/02/06 07:23:59;;;;;;;6.13;5.53;;;7.30;99.90;;;;;;5016255;28;20203;-59
2024/02/06 07:26:27;;;;;;;6.28;3.75;;;7.40;99.90;;;;;;5029830;28;20301;-60
2024/02/06 07:28:54;;;;;;;4.68;3.85;;;7.40;99.90;;;;;;5029355;28;20238;-61
2024/02/06 07:31:22;;;;;;;8.18;4.50;;;7.40;99.90;;;;;;5028804;28;20246;-60
2024/02/06 07:33:49;;;;;;;7.28;4.30;;;7.40;99.90;;;;;;5028225;28;20584;-60
2024/02/06 07:36:16;;;;;;;5.72;4.95;;;7.40;99.90;;;;;;5028038;28;20213;-61
2024/02/06 07:38:43;;;;;;;5.05;3.97;;;7.40;99.90;;;;;;5029574;28;20248;-60
2024/02/06 07:41:10;;;;;;;7.10;4.65;;;7.40;99.90;;;;;;5029106;28;20234;-60
2024/02/06 07:43:37;;;;;;;5.65;5.07;;;7.40;99.90;;;;;;5029772;28;20869;-61
2024/02/06 07:46:04;;;;;;;5.32;4.82;;;7.40;99.90;;;;;;5029550;28;20203;-59
2024/02/06 07:48:33;;;;;;;7.90;4.90;;;7.40;99.90;;;;;;5029628;28;20636;-60
2024/02/06 07:51:00;;;;;;;9.48;4.78;;;7.40;99.90;;;;;;5028959;28;20241;-60
2024/02/06 07:53:26;;;;;;;5.20;4.70;;;7.40;99.90;;;;;;5029553;28;20207;-60
2024/02/06 07:55:53;;;;;;;9.50;5.35;;;7.40;99.90;;;;;;5029714;28;20648;-57
2024/02/06 07:58:20;;;;;;;6.90;4.68;;;7.40;99.90;;;;;;5029354;28;20219;-59
2024/02/06 08:00:47;;;;;;;7.30;4.25;;;7.40;99.90;;;;;;5029011;28;20607;-60
2024/02/06 08:03:14;;;;;;;6.20;5.57;;;7.40;99.90;;;;;;5029688;28;20215;-60
2024/02/06 08:05:42;;;;;;;6.93;4.45;;;7.40;99.90;;;;;;5029697;28;20678;-61
2024/02/06 08:08:09;;;;;;;4.40;4.00;;;7.40;99.90;;;;;;5029114;28;20217;-60
2024/02/06 08:10:35;;;;;;;7.20;5.38;;;7.40;99.90;;;;;;5029389;28;20611;-60
2024/02/06 08:13:02;;;;;;;6.05;5.25;;;7.40;99.90;;;;;;5029106;28;20217;-60
2024/02/06 08:15:29;;;;;;;5.55;3.72;;;7.40;99.90;;;;;;5029420;28;20955;-61
2024/02/06 08:17:56;;;;;;;4.97;4.43;;;7.50;99.90;;;;;;5029046;28;20215;-60
2024/02/06 08:20:23;;;;;;;5.63;4.88;;;7.50;99.90;;;;;;5028746;28;20618;-59
2024/02/06 08:22:51;;;;;;;6.82;5.50;;;7.50;99.90;;;;;;5028641;28;20215;-60
2024/02/06 08:25:21;;;;;;;4.97;4.47;;;7.60;99.90;;;;;;5028403;28;20207;-60
2024/02/06 08:27:48;;;;;;;5.35;4.60;;;7.60;99.90;;;;;;5028827;28;20210;-60
2024/02/06 08:30:16;;;;;;;6.85;4.72;;;7.70;99.90;;;;;;5028060;28;20231;-61
2024/02/06 08:32:43;;;;;;;5.10;4.22;;;7.60;99.90;;;;;;5025688;28;20737;-61
2024/02/06 08:35:10;;;;;;;6.18;4.57;;;7.70;99.90;;;;;;5020886;28;20215;-60
2024/02/06 08:37:37;;;;;;;6.25;5.63;;;7.70;99.90;;;;;;5020842;28;20215;-60
2024/02/06 08:40:06;;;;;;;6.50;5.22;;;7.70;99.90;;;;;;5028585;28;20230;-60
2024/02/06 08:42:34;;;;;;;4.40;3.95;;;7.70;99.90;;;;;;5024580;28;20605;-59
2024/02/06 08:45:01;;;;;;;4.93;4.53;;;7.70;99.90;;;;;;5015250;28;20565;-60
2024/02/06 08:47:28;;;;;;;7.13;4.00;;;7.70;99.90;;;;;;5027909;28;20693;-60
2024/02/06 08:49:54;;;;;;;5.40;4.10;;;7.60;99.90;;;;;;5022149;28;20211;-60
2024/02/06 08:52:21;;;;;;;8.98;4.70;;;7.60;99.90;;;;;;5017541;28;20215;-61
2024/02/06 08:54:48;;;;;;;8.02;5.38;;;7.70;99.90;;;;;;5015892;28;20208;-60
2024/02/06 08:57:16;;;;;;;7.05;5.18;;;7.70;99.90;;;;;;5019280;28;20601;-59
2024/02/06 08:59:43;;;;;;;5.80;4.30;;;7.70;99.90;;;;;;5016870;28;20223;-60
2024/02/06 09:02:10;;;;;;;5.38;4.85;;;7.70;99.90;;;;;;5025468;28;20620;-60
2024/02/06 09:04:38;;;;;;;5.38;4.03;;;7.70;99.90;;;;;;5028769;28;20591;-58
2024/02/06 09:07:07;;;;;;;5.72;5.10;;;7.70;99.90;;;;;;5028420;28;20238;-61
2024/02/06 09:09:33;;;;;;;5.70;4.82;;;7.70;99.90;;;;;;5017193;28;20229;-61
2024/02/06 09:12:01;;;;;;;6.05;4.38;;;7.70;99.90;;;;;;5024127;28;20207;-61
2024/02/06 09:14:29;;;;;;;6.43;4.32;;;7.70;99.90;;;;;;5028260;28;20211;-61
2024/02/06 09:16:56;;;;;;;7.30;4.85;;;7.70;99.90;;;;;;5027717;28;20249;-60
2024/02/06 09:19:23;;;;;;;6.18;5.53;;;7.70;99.90;;;;;;5025676;28;20241;-59
2024/02/06 09:21:50;;;;;;;6.88;5.10;;;7.70;99.90;;;;;;5014451;28;20235;-57
2024/02/06 09:24:16;;;;;;;4.95;4.45;;;7.60;99.90;;;;;;5023280;28;20226;-61
2024/02/06 09:26:43;;;;;;;5.63;5.07;;;7.60;99.90;;;;;;5012390;28;20242;-60
2024/02/06 09:29:10;;;;;;;7.25;5.78;;;7.60;99.90;;;;;;5016651;28;20525;-61
2024/02/06 09:31:40;;;;;;;5.40;4.90;;;7.60;99.90;;;;;;5022763;28;20241;-59
2024/02/06 09:34:06;;;;;;;7.45;5.90;;;7.60;99.90;;;;;;5026997;28;20705;-61
2024/02/06 09:36:33;;;;;;;7.32;6.55;;;7.60;99.90;;;;;;5019672;28;20226;-60
2024/02/06 09:39:00;;;;;;;9.88;5.07;;;7.60;99.90;;;;;;5026877;28;20235;-60
2024/02/06 09:41:27;;;;;;;6.78;4.57;;;7.60;99.90;;;;;;5017683;28;20234;-61
2024/02/06 09:43:54;;;;;;;7.88;4.88;;;7.60;99.90;;;;;;5022417;28;20215;-60
2024/02/06 09:46:22;;;;;;;5.97;5.43;;;7.60;99.90;;;;;;5028090;28;20673;-60
2024/02/06 09:48:50;;;;;;;8.35;7.25;;;7.60;99.90;;;;;;5024299;28;20637;-61
2024/02/06 09:51:18;;;;;;;7.15;5.97;;;7.60;99.90;;;;;;5024951;28;20281;-60
2024/02/06 09:53:46;;;;;;;6.38;5.78;;;7.60;99.90;;;;;;5014634;28;20211;-60
2024/02/06 09:56:13;;;;;;;6.97;6.22;;;7.60;99.90;;;;;;5026764;28;20203;-61
2024/02/06 09:58:40;;;;;;;8.90;5.80;;;7.60;99.90;;;;;;5028966;28;20675;-59
2024/02/06 10:01:12;;;;;;;7.30;6.43;;;7.60;99.90;;;;;;5019361;28;20239;-61
2024/02/06 10:03:40;;;;;;;21.98;7.25;;;7.60;99.90;;;;;;5021244;28;20209;-60
2024/02/06 10:06:14;;;;;;;4.72;4.30;;;7.70;99.90;;;;;;5027724;28;20206;-60
2024/02/06 10:08:44;;;;;;;8.73;5.85;;;7.70;99.90;;;;;;5026265;28;20242;-61
2024/02/06 10:11:11;;;;;;;5.53;5.10;;;7.70;99.90;;;;;;5018576;28;20723;-60
2024/02/06 10:13:39;;;;;;;6.57;5.68;;;7.70;99.90;;;;;;5024644;28;20207;-60
2024/02/06 10:16:06;;;;;;;6.53;5.25;;;7.80;99.90;;;;;;5028876;28;20221;-59
2024/02/06 10:18:32;;;;;;;7.60;5.47;;;7.80;99.90;;;;;;5020317;28;20211;-60
2024/02/06 10:21:00;;;;;;;6.82;5.05;;;7.90;99.90;;;;;;5029576;28;20230;-59
2024/02/06 10:23:29;;;;;;;7.18;5.07;;;7.90;99.90;;;;;;5026994;28;20302;-60
2024/02/06 10:26:03;;;;;;;8.57;6.53;;;7.90;99.90;;;;;;5030278;28;20317;-58
2024/02/06 10:28:30;;;;;;;5.55;5.05;;;7.90;99.90;;;;;;5029413;28;20234;-60
2024/02/06 10:30:57;;;;;;;6.63;5.20;;;7.90;99.90;;;;;;5029095;28;20344;-60
2024/02/06 10:33:24;;;;;;;7.35;5.43;;;8.00;99.90;;;;;;5029508;28;20217;-59
2024/02/06 10:35:51;;;;;;;5.78;5.15;;;8.00;99.90;;;;;;5030116;28;20213;-61
2024/02/06 10:38:18;;;;;;;7.57;5.60;;;8.10;99.90;;;;;;5020045;28;20207;-61
2024/02/06 10:40:47;;;;;;;6.72;4.75;;;8.10;99.90;;;;;;5026071;28;20230;-57
2024/02/06 10:43:14;;;;;;;5.35;4.05;;;8.20;99.90;;;;;;5029733;28;20293;-60
2024/02/06 10:45:41;;;;;;;7.72;4.25;;;8.20;99.90;;;;;;5028387;28;20218;-60
2024/02/06 10:48:08;;;;;;;5.20;4.57;;;8.30;99.90;;;;;;5028022;28;20246;-60
2024/02/06 10:50:36;;;;;;;7.78;5.70;;;8.30;99.90;;;;;;5025666;28;20306;-60
2024/02/06 10:53:04;;;;;;;9.03;5.13;;;8.40;99.90;;;;;;5022236;28;20211;-61
2024/02/06 10:55:31;;;;;;;6.97;5.40;;;8.40;99.90;;;;;;5026365;28;20461;-60
2024/02/06 10:58:06;;;;;;;4.03;3.72;;;8.40;99.90;;;;;;5026505;28;20556;-61
2024/02/06 11:00:34;;;;;;;4.05;3.55;;;8.50;99.90;;;;;;5028325;28;20230;-58
2024/02/06 11:03:05;;;;;;;4.25;3.42;;;8.50;99.90;;;;;;5027997;28;20298;-60
2024/02/06 11:05:39;;;;;;;4.23;3.70;;;8.50;99.90;;;;;;5021378;28;20211;-60
2024/02/06 11:08:08;;;;;;;6.15;5.43;;;8.50;99.90;;;;;;5028525;28;20462;-59
2024/02/06 11:10:41;;;;;;;5.80;4.18;;;8.50;99.90;;;;;;5023304;28;20313;-61
2024/02/06 11:13:13;;;;;;;4.18;3.63;;;8.50;99.90;;;;;;5028410;28;20212;-61
2024/02/06 11:15:41;;;;;;;6.43;3.55;;;8.50;99.90;;;;;;5028870;28;20562;-60
2024/02/06 11:18:12;;;;;;;4.22;3.85;;;8.60;99.90;;;;;;5025528;28;20242;-59
2024/02/06 11:20:42;;;;;;;4.03;3.63;;;8.60;99.90;;;;;;5028975;28;20323;-60
2024/02/06 11:23:10;;;;;;;4.28;3.20;;;8.60;99.90;;;;;;5025352;28;20217;-60
2024/02/06 11:25:38;;;;;;;3.88;3.47;;;8.70;99.90;;;;;;5029172;28;20291;-61
2024/02/06 11:28:06;;;;;;;5.95;4.07;;;8.70;99.90;;;;;;5026667;28;20203;-61
2024/02/06 11:30:35;;;;;;;4.93;3.90;;;8.80;99.90;;;;;;5027558;28;20241;-59
2024/02/06 11:33:04;;;;;;;6.05;3.28;;;8.80;99.90;;;;;;5028968;28;20446;-61
2024/02/06 11:35:31;;;;;;;4.30;3.90;;;8.90;99.90;;;;;;5029001;28;20286;-60
2024/02/06 11:37:58;;;;;;;6.60;3.60;;;8.90;99.90;;;;;;5028719;28;21079;-61
2024/02/06 11:40:26;;;;;;;4.17;3.60;;;9.00;99.90;;;;;;5028554;28;20874;-60
2024/02/06 11:43:04;;;;;;;27.40;10.40;;;9.00;99.90;;;;;;5028548;28;20452;-60
2024/02/06 11:45:32;;;;;;;4.20;3.55;;;9.10;99.90;;;;;;5028994;28;20217;-60
2024/02/06 11:48:02;;;;;;;7.37;4.60;;;9.20;99.90;;;;;;5028631;28;20314;-61
2024/02/06 11:50:33;;;;;;;4.22;3.83;;;9.20;99.90;;;;;;5028463;28;20462;-62
2024/02/06 11:53:04;;;;;;;6.20;3.23;;;9.30;99.90;;;;;;5028140;28;20217;-62
2024/02/06 11:55:31;;;;;;;6.53;2.87;;;9.40;99.90;;;;;;5029259;28;20456;-61
2024/02/06 11:57:59;;;;;;;4.70;3.10;;;9.60;99.90;;;;;;5028924;28;20540;-61
2024/02/06 12:00:27;;;;;;;3.57;2.80;;;9.70;99.90;;;;;;5028267;28;20489;-60
2024/02/06 12:02:54;;;;;;;6.30;3.47;;;9.90;99.90;;;;;;5027467;28;20544;-60
2024/02/06 12:05:22;;;;;;;8.87;3.70;;;10.00;99.90;;;;;;5027898;28;20454;-61
2024/02/06 12:07:53;;;;;;;3.27;2.80;;;10.10;99.90;;;;;;5027660;28;20448;-62
2024/02/06 12:10:27;;;;;;;6.63;2.70;;;10.10;99.90;;;;;;5026922;28;20474;-61
2024/02/06 12:12:55;;;;;;;5.23;3.40;;;10.10;99.90;;;;;;5027189;28;20446;-61
2024/02/06 12:15:22;;;;;;;3.00;2.57;;;10.10;99.90;;;;;;5027803;28;20984;-61
2024/02/06 12:17:50;;;;;;;10.60;4.60;;;10.10;99.90;;;;;;5027592;28;20454;-61
2024/02/06 12:20:20;;;;;;;5.60;5.07;;;10.10;99.90;;;;;;5027190;28;20489;-62
2024/02/06 12:22:58;;;;;;;3.30;3.10;;;10.10;99.90;;;;;;5027451;28;21047;-61
2024/02/06 12:25:26;;;;;;;4.03;3.33;;;10.10;99.90;;;;;;5027687;28;20552;-61
2024/02/06 12:28:00;;;;;;;5.40;2.93;;;10.20;99.90;;;;;;5027694;28;21284;-61
2024/02/06 12:30:28;;;;;;;3.17;2.77;;;10.30;99.90;;;;;;5027363;28;20481;-60
2024/02/06 12:32:56;;;;;;;3.90;3.33;;;10.50;99.90;;;;;;5026903;28;20967;-62
2024/02/06 12:35:22;;;;;;;3.20;2.90;;;10.60;99.90;;;;;;5028021;28;20528;-61
2024/02/06 12:37:49;;;;;;;3.73;3.40;;;10.90;99.90;;;;;;5027547;28;20458;-61
2024/02/06 12:40:19;;;;;;;4.77;2.87;;;11.00;99.90;;;;;;5027401;28;20497;-61
2024/02/06 12:42:49;;;;;;;3.87;2.70;;;11.20;99.90;;;;;;5027278;28;20449;-62
2024/02/06 12:45:17;;;;;;;3.83;3.30;;;11.30;99.90;;;;;;5027710;28;20517;-61
2024/02/06 12:47:44;;;;;;;4.00;3.33;;;11.30;99.90;;;;;;5027765;28;20449;-60
2024/02/06 12:50:12;;;;;;;3.20;2.90;;;11.30;99.90;;;;;;5027691;28;20476;-62
2024/02/06 12:52:40;;;;;;;4.20;3.70;;;11.30;99.90;;;;;;5027177;28;20563;-62
2024/02/06 12:55:08;;;;;;;4.50;3.50;;;11.20;99.90;;;;;;5027766;28;20449;-62